Terminal Aerodrome Forecast
Issued by NWS

Home | Current Version | Previous Version | Text Only | Print | Product List | Glossary On
Versions: 1 2 3 4 5 6 7 8 9 10 11 12
906
FTUS45 KPSR 212334
TAFIPL
TAF
KIPL 212334Z 2200/2224 09004KT P6SM SKC
     FM220200 26008KT P6SM FEW120
     FM220900 12005KT P6SM SKC=

USA.gov is the U.S. government's official web portal to all federal, state and local government web resources and services.